createdAt,value
2023-01-12T00:01:29.425Z,98826.63
2023-01-12T00:04:32.470Z,98807.19
2023-01-12T00:07:35.373Z,98832.81
2023-01-12T00:10:38.580Z,98839.00
2023-01-12T00:13:41.312Z,98839.88
2023-01-12T00:16:44.202Z,98838.12
2023-01-12T00:19:47.458Z,98839.84
2023-01-12T00:22:50.415Z,98841.59
2023-01-12T00:25:54.298Z,98833.66
2023-01-12T00:28:57.113Z,98835.44
2023-01-12T00:32:01.010Z,98835.44
2023-01-12T00:35:04.034Z,98825.75
2023-01-12T00:38:06.733Z,98822.22
2023-01-12T00:41:11.960Z,98826.66
2023-01-12T00:44:33.191Z,98831.06
2023-01-12T00:47:36.246Z,98843.41
2023-01-12T00:50:39.084Z,98838.09
2023-01-12T00:53:42.083Z,98836.34
2023-01-12T00:56:44.745Z,98843.37
2023-01-12T00:59:47.774Z,98853.09
2023-01-12T01:02:50.428Z,98863.69
2023-01-12T01:05:53.402Z,98859.25
2023-01-12T01:08:56.378Z,98858.37
2023-01-12T01:11:59.429Z,98835.37
2023-01-12T01:15:02.391Z,98856.66
2023-01-12T01:18:05.457Z,98775.28
2023-01-12T01:21:09.388Z,98858.41
2023-01-12T01:24:13.200Z,98858.41
2023-01-12T01:27:16.371Z,98859.31
2023-01-12T01:30:19.367Z,98869.06
2023-01-12T01:33:22.130Z,98871.72
2023-01-12T01:36:25.078Z,98871.75
2023-01-12T01:39:27.882Z,98867.31
2023-01-12T01:42:30.980Z,98865.53
2023-01-12T01:45:33.608Z,98875.22
2023-01-12T01:48:39.559Z,98846.91
2023-01-12T01:51:42.434Z,98883.19
2023-01-12T01:55:13.326Z,98884.97
2023-01-12T01:58:20.392Z,98884.97
2023-01-12T02:01:23.757Z,98883.22
2023-01-12T02:04:26.899Z,98884.09
2023-01-12T02:07:29.894Z,98880.59
2023-01-12T02:10:33.017Z,98881.47
2023-01-12T02:13:54.721Z,98880.56
2023-01-12T02:17:32.478Z,98880.59
2023-01-12T02:20:41.690Z,98876.19
2023-01-12T02:24:15.173Z,98877.06
2023-01-12T02:27:30.682Z,98880.59
2023-01-12T02:31:27.531Z,98873.53
2023-01-12T02:34:57.149Z,98865.59
2023-01-12T02:38:05.746Z,98855.88
2023-01-12T02:41:19.650Z,98863.84
2023-01-12T02:44:35.283Z,98860.28
2023-01-12T02:48:06.270Z,98837.31
2023-01-12T02:51:13.766Z,98843.53
2023-01-12T02:54:19.943Z,98839.97
2023-01-12T02:57:23.876Z,98814.38
2023-01-12T03:00:27.107Z,98840.00
2023-01-12T03:03:29.802Z,98824.06
2023-01-12T03:06:42.849Z,98846.16
2023-01-12T03:09:49.642Z,98840.00
2023-01-12T03:12:55.102Z,98843.53
2023-01-12T03:15:57.996Z,98839.97
2023-01-12T03:19:11.759Z,98829.38
2023-01-12T03:22:15.368Z,98822.31
2023-01-12T03:25:18.870Z,98816.12
2023-01-12T03:28:25.209Z,98814.34
2023-01-12T03:31:28.329Z,98813.47
2023-01-12T03:34:32.363Z,98822.31
2023-01-12T03:37:45.239Z,98816.97
2023-01-12T03:40:51.609Z,98826.72
2023-01-12T03:43:58.297Z,98846.19
2023-01-12T03:47:04.416Z,98834.66
2023-01-12T03:50:12.142Z,98834.66
2023-01-12T03:53:17.202Z,98829.34
2023-01-12T03:56:21.392Z,98835.53
2023-01-12T03:59:24.412Z,98824.94
2023-01-12T04:02:27.288Z,98834.66
2023-01-12T04:05:30.651Z,98839.97
2023-01-12T04:08:33.242Z,98823.16
2023-01-12T04:11:54.633Z,98844.38
2023-01-12T04:14:57.448Z,98848.81
2023-01-12T04:18:00.237Z,98842.63
2023-01-12T04:21:02.767Z,98847.94
2023-01-12T04:24:06.055Z,98850.59
2023-01-12T04:27:08.948Z,98853.25
2023-01-12T04:30:13.625Z,98862.97
2023-01-12T04:33:17.049Z,98865.63
2023-01-12T04:36:20.041Z,98862.09
2023-01-12T04:39:22.650Z,98859.44
2023-01-12T04:42:44.068Z,98850.59
2023-01-12T04:45:47.806Z,98861.19
2023-01-12T04:48:50.842Z,98849.72
2023-01-12T04:51:53.444Z,98844.41
2023-01-12T04:54:56.951Z,98840.88
2023-01-12T04:57:59.638Z,98840.00
2023-01-12T05:01:12.887Z,98831.16
2023-01-12T05:04:15.583Z,98832.91
2023-01-12T05:07:18.679Z,98832.94
2023-01-12T05:10:24.270Z,98832.03
2023-01-12T05:13:31.180Z,98854.12
2023-01-12T05:16:33.757Z,98851.47
2023-01-12T05:19:36.811Z,98855.88
2023-01-12T05:22:39.523Z,98818.78
2023-01-12T05:25:42.949Z,98853.25
2023-01-12T05:28:50.046Z,98857.69
2023-01-12T05:31:53.275Z,98855.00
2023-01-12T05:34:56.007Z,98862.97
2023-01-12T05:37:58.884Z,98866.50
2023-01-12T05:41:03.433Z,98850.59
2023-01-12T05:44:06.498Z,98864.75
2023-01-12T05:47:09.153Z,98870.03
2023-01-12T05:50:12.206Z,98868.28
2023-01-12T05:53:14.791Z,98877.12
2023-01-12T05:56:20.636Z,98878.00
2023-01-12T05:59:23.944Z,98875.34
2023-01-12T06:02:27.156Z,98864.75
2023-01-12T06:05:30.372Z,98872.69
2023-01-12T06:08:33.154Z,98872.69
2023-01-12T06:11:54.603Z,98868.28
2023-01-12T06:14:57.130Z,98877.09
2023-01-12T06:18:00.106Z,98877.97
2023-01-12T06:21:03.838Z,98884.19
2023-01-12T06:24:07.147Z,98880.63
2023-01-12T06:27:09.713Z,98888.59
2023-01-12T06:30:13.627Z,98887.44
2023-01-12T06:33:16.154Z,98885.84
2023-01-12T06:36:19.216Z,98901.81
2023-01-12T06:39:21.722Z,98910.69
2023-01-12T06:42:31.651Z,98916.91
2023-01-12T06:45:34.179Z,98920.47
2023-01-12T06:48:38.689Z,98916.00
2023-01-12T06:51:42.750Z,98923.06
2023-01-12T06:54:45.623Z,98907.19
2023-01-12T06:57:48.136Z,98931.03
2023-01-12T07:00:51.180Z,98927.53
2023-01-12T07:03:54.267Z,98935.47
2023-01-12T07:06:57.259Z,98943.41
2023-01-12T07:10:00.120Z,98938.12
2023-01-12T07:13:03.664Z,98929.28
2023-01-12T07:16:07.073Z,98945.19
2023-01-12T07:19:09.957Z,98935.44
2023-01-12T07:22:12.738Z,98938.12
2023-01-12T07:25:16.495Z,98936.34
2023-01-12T07:28:19.333Z,98941.69
2023-01-12T07:31:22.420Z,98935.50
2023-01-12T07:34:25.121Z,98929.28
2023-01-12T07:37:28.285Z,98926.63
2023-01-12T07:40:31.043Z,98924.84
2023-01-12T07:43:34.094Z,98942.56
2023-01-12T07:46:36.786Z,98941.66
2023-01-12T07:49:39.819Z,98925.75
2023-01-12T07:52:42.434Z,98946.09
2023-01-12T07:55:45.726Z,98946.97
2023-01-12T07:58:49.594Z,98941.66
2023-01-12T08:01:53.991Z,98913.38
2023-01-12T08:04:56.902Z,98935.47
2023-01-12T08:08:00.005Z,98933.69
2023-01-12T08:11:06.770Z,98941.66
2023-01-12T08:14:09.396Z,98947.84
2023-01-12T08:17:19.401Z,98941.69
2023-01-12T08:20:28.931Z,98943.44
2023-01-12T08:23:35.404Z,98954.03
2023-01-12T08:26:40.224Z,98954.94
2023-01-12T08:29:49.443Z,98952.25
2023-01-12T08:32:52.111Z,98954.03
2023-01-12T08:35:55.132Z,98960.22
2023-01-12T08:38:57.967Z,98955.78
2023-01-12T08:42:01.664Z,98945.16
2023-01-12T08:45:07.125Z,98963.72
2023-01-12T08:48:10.328Z,98963.72
2023-01-12T08:51:13.046Z,98930.97
2023-01-12T08:54:17.658Z,98945.97
2023-01-12T08:57:20.616Z,98959.19
2023-01-12T09:00:23.696Z,98960.94
2023-01-12T09:03:26.467Z,98952.00
2023-01-12T09:06:37.242Z,98962.56
2023-01-12T09:09:40.640Z,98967.00
2023-01-12T09:12:43.668Z,98952.88
2023-01-12T09:16:01.239Z,98949.25
2023-01-12T09:19:10.486Z,98954.47
2023-01-12T09:22:12.993Z,98961.44
2023-01-12T09:25:16.464Z,98961.38
2023-01-12T09:28:19.081Z,98956.87
2023-01-12T09:31:23.443Z,98970.56
2023-01-12T09:34:26.391Z,98964.28
2023-01-12T09:37:29.294Z,98962.56
2023-01-12T09:40:31.986Z,98956.37
2023-01-12T09:43:54.462Z,98950.19
2023-01-12T09:47:01.372Z,98944.94
2023-01-12T09:50:12.393Z,98957.28
2023-01-12T09:53:37.142Z,98961.59
2023-01-12T09:56:51.792Z,98949.16
2023-01-12T10:00:03.500Z,98965.06
2023-01-12T10:03:24.813Z,98959.69
2023-01-12T10:06:28.131Z,98953.56
2023-01-12T10:09:30.936Z,98959.75
2023-01-12T10:12:46.329Z,98959.41
2023-01-12T10:15:58.121Z,98950.00
2023-01-12T10:19:08.921Z,98948.81
2023-01-12T10:22:38.637Z,98959.06
2023-01-12T10:25:42.579Z,98947.31
2023-01-12T10:28:46.793Z,98959.84
2023-01-12T10:31:55.616Z,98958.13
2023-01-12T10:34:58.096Z,98960.66
2023-01-12T10:38:00.931Z,98955.22
2023-01-12T10:41:35.626Z,98945.47
2023-01-12T10:44:38.448Z,98941.69
2023-01-12T10:47:41.963Z,98945.34
2023-01-12T10:50:56.980Z,98931.28
2023-01-12T10:54:18.024Z,98919.63
2023-01-12T10:57:23.461Z,98923.47
2023-01-12T11:00:27.799Z,98934.09
2023-01-12T11:03:33.870Z,98926.75
2023-01-12T11:06:37.080Z,98930.81
2023-01-12T11:09:43.845Z,98931.56
2023-01-12T11:12:55.295Z,98921.38
2023-01-12T11:16:12.320Z,98926.34
2023-01-12T11:19:21.617Z,98921.38
2023-01-12T11:22:27.673Z,98922.53
2023-01-12T11:25:40.979Z,98924.31
2023-01-12T11:28:47.894Z,98913.81
2023-01-12T11:31:55.121Z,98913.00
2023-01-12T11:35:04.495Z,98911.31
2023-01-12T11:38:41.129Z,98906.69
2023-01-12T11:42:08.276Z,98911.06
2023-01-12T11:45:19.723Z,98897.78
2023-01-12T11:48:30.730Z,98908.38
2023-01-12T11:51:33.554Z,98910.06
2023-01-12T11:54:37.648Z,98886.16
2023-01-12T11:58:01.095Z,98902.78
2023-01-12T12:01:19.212Z,98899.94
2023-01-12T12:04:41.901Z,98900.81
2023-01-12T12:07:53.623Z,98900.84
2023-01-12T12:10:58.945Z,98888.69
2023-01-12T12:14:01.799Z,98888.00
2023-01-12T12:17:43.105Z,98886.63
2023-01-12T12:21:00.838Z,98897.44
2023-01-12T12:24:23.463Z,98888.06
2023-01-12T12:27:45.347Z,98894.91
2023-01-12T12:31:00.690Z,98894.28
2023-01-12T12:34:52.474Z,98892.72
2023-01-12T12:38:08.449Z,98888.47
2023-01-12T12:41:57.904Z,98887.59
2023-01-12T12:45:16.824Z,98883.19
2023-01-12T12:48:33.343Z,98880.66
2023-01-12T12:51:37.909Z,98878.09
2023-01-12T12:54:40.787Z,98864.91
2023-01-12T12:58:05.735Z,98857.97
2023-01-12T13:01:29.884Z,98865.81
2023-01-12T13:04:46.289Z,98869.75
2023-01-12T13:07:51.836Z,98875.94
2023-01-12T13:10:57.894Z,98866.91
2023-01-12T13:14:03.948Z,98870.34
2023-01-12T13:17:19.006Z,98868.47
2023-01-12T13:20:52.230Z,98859.34
2023-01-12T13:24:16.798Z,98861.28
2023-01-12T13:28:01.301Z,98865.44
2023-01-12T13:31:30.453Z,98870.56
2023-01-12T13:34:39.145Z,98861.97
2023-01-12T13:37:51.071Z,98858.84
2023-01-12T13:41:03.612Z,98864.53
2023-01-12T13:44:10.124Z,98866.66
2023-01-12T13:47:30.446Z,98865.97
2023-01-12T13:50:35.676Z,98871.47
2023-01-12T13:53:38.410Z,98867.88
2023-01-12T13:56:42.140Z,98875.03
2023-01-12T14:00:08.917Z,98873.31
2023-01-12T14:03:27.277Z,98873.34
2023-01-12T14:06:54.335Z,98876.12
2023-01-12T14:10:05.349Z,98877.97
2023-01-12T14:13:22.744Z,98868.28
2023-01-12T14:17:05.650Z,98870.19
2023-01-12T14:20:15.122Z,98866.81
2023-01-12T14:23:20.471Z,98873.06
2023-01-12T14:26:27.103Z,98868.75
2023-01-12T14:29:29.638Z,98861.66
2023-01-12T14:32:32.466Z,98870.63
2023-01-12T14:35:34.945Z,98870.69
2023-01-12T14:38:41.060Z,98868.13
2023-01-12T14:42:05.660Z,98870.03
2023-01-12T14:45:40.240Z,98864.75
2023-01-12T14:48:44.068Z,98867.53
2023-01-12T14:51:55.236Z,98876.53
2023-01-12T14:55:14.136Z,98873.03
2023-01-12T14:58:20.518Z,98863.38
2023-01-12T15:01:38.290Z,98859.91
2023-01-12T15:05:02.736Z,98862.66
2023-01-12T15:08:08.374Z,98862.78
2023-01-12T15:11:11.214Z,98859.28
2023-01-12T15:14:22.366Z,98865.59
2023-01-12T15:17:43.852Z,98868.34
2023-01-12T15:21:06.213Z,98863.09
2023-01-12T15:24:43.413Z,98859.66
2023-01-12T15:27:48.842Z,98863.25
2023-01-12T15:30:52.962Z,98864.25
2023-01-12T15:33:56.431Z,98865.22
2023-01-12T15:36:59.421Z,98868.03
2023-01-12T15:40:02.034Z,98875.25
2023-01-12T15:43:04.895Z,98878.03
2023-01-12T15:46:16.881Z,98863.03
2023-01-12T15:49:22.156Z,98859.50
2023-01-12T15:52:25.895Z,98847.12
2023-01-12T15:55:31.435Z,98870.94
2023-01-12T15:58:34.092Z,98868.34
2023-01-12T16:01:55.261Z,98876.34
2023-01-12T16:04:58.780Z,98876.34
2023-01-12T16:08:01.293Z,98871.91
2023-01-12T16:11:13.519Z,98877.25
2023-01-12T16:14:16.053Z,98885.31
2023-01-12T16:17:19.003Z,98881.78
2023-01-12T16:20:22.083Z,98881.81
2023-01-12T16:23:25.215Z,98883.63
2023-01-12T16:26:28.560Z,98881.91
2023-01-12T16:29:31.976Z,98889.00
2023-01-12T16:32:34.609Z,98885.50
2023-01-12T16:35:37.413Z,98875.72
2023-01-12T16:38:40.334Z,98880.13
2023-01-12T16:41:43.233Z,98875.72
2023-01-12T16:44:49.119Z,98881.03
2023-01-12T16:47:56.663Z,98886.41
2023-01-12T16:50:59.251Z,98882.88
2023-01-12T16:54:04.621Z,98878.47
2023-01-12T16:57:07.635Z,98882.94
2023-01-12T17:00:10.967Z,98884.75
2023-01-12T17:03:14.192Z,98872.44
2023-01-12T17:06:20.214Z,98895.44
2023-01-12T17:09:22.737Z,98891.91
2023-01-12T17:12:25.809Z,98887.50
2023-01-12T17:15:28.690Z,98883.97
2023-01-12T17:18:31.953Z,98896.34
2023-01-12T17:21:34.605Z,98903.44
2023-01-12T17:24:40.302Z,98891.91
2023-01-12T17:27:42.966Z,98891.03
2023-01-12T17:30:46.915Z,98886.63
2023-01-12T17:33:51.839Z,98886.63
2023-01-12T17:36:55.544Z,98893.75
2023-01-12T17:39:58.317Z,98892.88
2023-01-12T17:43:08.582Z,98889.34
2023-01-12T17:46:18.328Z,98895.56
2023-01-12T17:49:21.336Z,98891.13
2023-01-12T17:52:24.979Z,98897.34
2023-01-12T17:55:29.582Z,98879.66
2023-01-12T17:58:32.583Z,98890.28
2023-01-12T18:01:36.848Z,98885.84
2023-01-12T18:04:39.815Z,98892.94
2023-01-12T18:07:42.391Z,98882.34
2023-01-12T18:10:45.752Z,98892.09
2023-01-12T18:13:48.251Z,98889.44
2023-01-12T18:16:51.115Z,98888.53
2023-01-12T18:19:53.701Z,98885.03
2023-01-12T18:22:56.551Z,98885.00
2023-01-12T18:26:04.494Z,98882.38
2023-01-12T18:29:08.115Z,98879.72
2023-01-12T18:32:11.126Z,98884.12
2023-01-12T18:35:16.276Z,98884.16
2023-01-12T18:38:19.067Z,98888.59
2023-01-12T18:41:41.556Z,98894.75
2023-01-12T18:44:44.415Z,98888.59
2023-01-12T18:48:05.874Z,98890.34
2023-01-12T18:51:26.858Z,98899.22
2023-01-12T18:54:29.865Z,98893.91
2023-01-12T18:57:33.268Z,98891.25
2023-01-12T19:00:37.172Z,98881.53
2023-01-12T19:03:41.651Z,98888.59
2023-01-12T19:06:46.568Z,98885.94
2023-01-12T19:09:49.137Z,98888.59
2023-01-12T19:13:12.048Z,98888.59
2023-01-12T19:16:30.133Z,98889.47
2023-01-12T19:19:34.905Z,98879.75
2023-01-12T19:22:55.961Z,98880.63
2023-01-12T19:26:20.982Z,98875.34
2023-01-12T19:29:23.852Z,98882.38
2023-01-12T19:32:26.783Z,98876.19
2023-01-12T19:35:29.745Z,98871.78
2023-01-12T19:38:32.670Z,98865.59
2023-01-12T19:41:54.431Z,98863.84
2023-01-12T19:44:57.373Z,98860.31
2023-01-12T19:47:59.940Z,98854.09
2023-01-12T19:51:10.429Z,98855.88
2023-01-12T19:54:13.502Z,98849.66
2023-01-12T19:57:16.463Z,98845.25
2023-01-12T20:00:20.369Z,98845.25
2023-01-12T20:03:24.375Z,98852.34
2023-01-12T20:06:27.167Z,98832.00
2023-01-12T20:09:30.060Z,98843.50
2023-01-12T20:12:32.740Z,98842.59
2023-01-12T20:15:38.455Z,98846.12
2023-01-12T20:18:43.534Z,98846.12
2023-01-12T20:21:47.713Z,98855.84
2023-01-12T20:24:50.284Z,98848.78
2023-01-12T20:27:53.852Z,98851.44
2023-01-12T20:31:00.928Z,98849.69
2023-01-12T20:34:03.919Z,98855.88
2023-01-12T20:37:06.583Z,98855.88
2023-01-12T20:40:10.399Z,98863.81
2023-01-12T20:43:13.519Z,98860.28
2023-01-12T20:46:16.583Z,98860.31
2023-01-12T20:49:19.386Z,98866.53
2023-01-12T20:52:25.646Z,98875.34
2023-01-12T20:55:28.894Z,98874.47
2023-01-12T20:58:32.316Z,98871.81
2023-01-12T21:01:35.233Z,98866.50
2023-01-12T21:04:38.169Z,98872.69
2023-01-12T21:07:40.669Z,98871.81
2023-01-12T21:10:51.994Z,98871.81
2023-01-12T21:13:56.304Z,98878.88
2023-01-12T21:16:59.382Z,98873.56
2023-01-12T21:20:01.945Z,98871.81
2023-01-12T21:23:04.829Z,98870.94
2023-01-12T21:26:08.013Z,98870.91
2023-01-12T21:29:10.893Z,98873.59
2023-01-12T21:32:13.907Z,98870.03
2023-01-12T21:35:17.932Z,98874.47
2023-01-12T21:38:20.530Z,98868.25
2023-01-12T21:41:24.923Z,98876.22
2023-01-12T21:44:27.754Z,98871.81
2023-01-12T21:47:30.578Z,98870.91
2023-01-12T21:50:34.127Z,98865.59
2023-01-12T21:53:37.040Z,98869.16
2023-01-12T21:56:39.586Z,98871.81
2023-01-12T21:59:43.118Z,98873.56
2023-01-12T22:02:45.818Z,98869.16
2023-01-12T22:05:49.534Z,98869.16
2023-01-12T22:08:52.155Z,98870.03
2023-01-12T22:11:54.872Z,98862.09
2023-01-12T22:14:57.429Z,98865.59
2023-01-12T22:18:00.804Z,98856.78
2023-01-12T22:21:05.477Z,98855.88
2023-01-12T22:24:08.372Z,98846.16
2023-01-12T22:27:10.927Z,98835.56
2023-01-12T22:30:17.347Z,98838.22
2023-01-12T22:33:20.564Z,98832.91
2023-01-12T22:36:23.639Z,98832.91
2023-01-12T22:39:27.677Z,98827.63
2023-01-12T22:42:50.346Z,98836.44
2023-01-12T22:45:55.999Z,98832.88
2023-01-12T22:49:01.883Z,98826.72
2023-01-12T22:52:04.936Z,98824.94
2023-01-12T22:55:08.188Z,98822.28
2023-01-12T22:58:10.893Z,98826.72
2023-01-12T23:01:14.137Z,98827.59
2023-01-12T23:04:16.675Z,98830.22
2023-01-12T23:07:19.638Z,98824.94
2023-01-12T23:10:25.232Z,98823.19
2023-01-12T23:13:28.004Z,98818.78
2023-01-12T23:16:30.445Z,98814.34
2023-01-12T23:19:33.537Z,98819.66
2023-01-12T23:22:36.387Z,98822.31
2023-01-12T23:25:39.821Z,98818.75
2023-01-12T23:28:47.977Z,98820.56
2023-01-12T23:31:50.890Z,98824.06
2023-01-12T23:34:53.443Z,98829.38
2023-01-12T23:37:56.514Z,98829.34
2023-01-12T23:40:59.554Z,98828.47
2023-01-12T23:44:04.400Z,98821.44
2023-01-12T23:47:07.733Z,98825.84
2023-01-12T23:50:12.305Z,98827.59
2023-01-12T23:53:15.602Z,98819.66
2023-01-12T23:56:19.651Z,98817.88
2023-01-12T23:59:22.261Z,98824.97
